sensor_id;sensor_type;location;lat;lon;timestamp;P1;durP1;ratioP1;P2;durP2;ratioP2
42886;SDS011;29032;56.028;92.904;2024-01-07T00:01:47;8.00;;;5.03;;
42886;SDS011;29032;56.028;92.904;2024-01-07T00:06:51;8.40;;;4.93;;
42886;SDS011;29032;56.028;92.904;2024-01-07T00:11:53;9.33;;;5.60;;
42886;SDS011;29032;56.028;92.904;2024-01-07T00:16:55;9.43;;;6.13;;
42886;SDS011;29032;56.028;92.904;2024-01-07T00:21:59;8.10;;;5.23;;
42886;SDS011;29032;56.028;92.904;2024-01-07T00:27:01;12.97;;;5.97;;
42886;SDS011;29032;56.028;92.904;2024-01-07T00:32:04;8.40;;;4.63;;
42886;SDS011;29032;56.028;92.904;2024-01-07T00:37:09;10.30;;;6.17;;
42886;SDS011;29032;56.028;92.904;2024-01-07T00:42:12;11.20;;;5.47;;
42886;SDS011;29032;56.028;92.904;2024-01-07T00:47:14;10.30;;;5.37;;
42886;SDS011;29032;56.028;92.904;2024-01-07T00:52:18;8.70;;;5.43;;
42886;SDS011;29032;56.028;92.904;2024-01-07T00:57:20;9.13;;;5.47;;
42886;SDS011;29032;56.028;92.904;2024-01-07T01:02:23;10.57;;;5.53;;
42886;SDS011;29032;56.028;92.904;2024-01-07T01:07:27;9.47;;;5.27;;
42886;SDS011;29032;56.028;92.904;2024-01-07T01:12:29;11.90;;;6.37;;
42886;SDS011;29032;56.028;92.904;2024-01-07T01:17:31;7.73;;;5.33;;
42886;SDS011;29032;56.028;92.904;2024-01-07T01:22:34;8.87;;;5.63;;
42886;SDS011;29032;56.028;92.904;2024-01-07T01:27:37;10.17;;;5.20;;
42886;SDS011;29032;56.028;92.904;2024-01-07T01:32:39;14.93;;;6.57;;
42886;SDS011;29032;56.028;92.904;2024-01-07T01:37:43;11.83;;;6.20;;
42886;SDS011;29032;56.028;92.904;2024-01-07T01:42:45;11.20;;;6.70;;
42886;SDS011;29032;56.028;92.904;2024-01-07T01:47:47;13.13;;;6.73;;
42886;SDS011;29032;56.028;92.904;2024-01-07T01:52:51;21.50;;;8.63;;
42886;SDS011;29032;56.028;92.904;2024-01-07T01:57:54;17.47;;;7.63;;
42886;SDS011;29032;56.028;92.904;2024-01-07T02:02:58;12.97;;;7.77;;
42886;SDS011;29032;56.028;92.904;2024-01-07T02:08:01;12.20;;;6.87;;
42886;SDS011;29032;56.028;92.904;2024-01-07T02:13:05;14.00;;;6.87;;
42886;SDS011;29032;56.028;92.904;2024-01-07T02:18:07;14.87;;;8.10;;
42886;SDS011;29032;56.028;92.904;2024-01-07T02:23:11;13.67;;;7.13;;
42886;SDS011;29032;56.028;92.904;2024-01-07T02:28:15;10.67;;;6.07;;
42886;SDS011;29032;56.028;92.904;2024-01-07T02:33:17;17.77;;;9.20;;
42886;SDS011;29032;56.028;92.904;2024-01-07T02:38:19;17.37;;;9.47;;
42886;SDS011;29032;56.028;92.904;2024-01-07T02:43:23;15.83;;;7.63;;
42886;SDS011;29032;56.028;92.904;2024-01-07T02:48:25;27.53;;;12.73;;
42886;SDS011;29032;56.028;92.904;2024-01-07T02:53:27;24.27;;;12.47;;
42886;SDS011;29032;56.028;92.904;2024-01-07T02:58:31;24.90;;;12.00;;
42886;SDS011;29032;56.028;92.904;2024-01-07T03:03:33;24.23;;;10.90;;
42886;SDS011;29032;56.028;92.904;2024-01-07T03:08:35;23.83;;;11.17;;
42886;SDS011;29032;56.028;92.904;2024-01-07T03:13:39;19.47;;;10.13;;
42886;SDS011;29032;56.028;92.904;2024-01-07T03:18:41;18.90;;;9.43;;
42886;SDS011;29032;56.028;92.904;2024-01-07T03:23:43;20.70;;;9.90;;
42886;SDS011;29032;56.028;92.904;2024-01-07T03:28:47;20.03;;;10.33;;
42886;SDS011;29032;56.028;92.904;2024-01-07T03:33:49;23.40;;;10.73;;
42886;SDS011;29032;56.028;92.904;2024-01-07T03:38:51;19.97;;;9.53;;
42886;SDS011;29032;56.028;92.904;2024-01-07T03:43:55;16.67;;;8.83;;
42886;SDS011;29032;56.028;92.904;2024-01-07T03:48:57;17.50;;;8.17;;
42886;SDS011;29032;56.028;92.904;2024-01-07T03:53:59;16.23;;;9.63;;
42886;SDS011;29032;56.028;92.904;2024-01-07T03:59:03;16.87;;;8.77;;
42886;SDS011;29032;56.028;92.904;2024-01-07T04:04:05;13.43;;;7.57;;
42886;SDS011;29032;56.028;92.904;2024-01-07T04:09:07;18.50;;;7.87;;
42886;SDS011;29032;56.028;92.904;2024-01-07T04:14:13;14.23;;;8.07;;
42886;SDS011;29032;56.028;92.904;2024-01-07T04:19:15;20.60;;;9.90;;
42886;SDS011;29032;56.028;92.904;2024-01-07T04:24:17;18.37;;;9.73;;
42886;SDS011;29032;56.028;92.904;2024-01-07T04:29:21;23.77;;;10.43;;
42886;SDS011;29032;56.028;92.904;2024-01-07T04:34:23;17.20;;;8.50;;
42886;SDS011;29032;56.028;92.904;2024-01-07T04:39:26;16.87;;;8.93;;
42886;SDS011;29032;56.028;92.904;2024-01-07T04:44:29;18.77;;;10.33;;
42886;SDS011;29032;56.028;92.904;2024-01-07T04:49:32;24.67;;;12.30;;
42886;SDS011;29032;56.028;92.904;2024-01-07T04:54:34;23.30;;;10.87;;
42886;SDS011;29032;56.028;92.904;2024-01-07T04:59:39;26.73;;;12.57;;
42886;SDS011;29032;56.028;92.904;2024-01-07T05:04:41;23.87;;;10.87;;
42886;SDS011;29032;56.028;92.904;2024-01-07T05:09:43;23.10;;;11.00;;
42886;SDS011;29032;56.028;92.904;2024-01-07T05:14:47;20.43;;;9.07;;
42886;SDS011;29032;56.028;92.904;2024-01-07T05:19:49;19.30;;;9.03;;
42886;SDS011;29032;56.028;92.904;2024-01-07T05:24:52;19.10;;;7.93;;
42886;SDS011;29032;56.028;92.904;2024-01-07T05:29:55;18.53;;;8.57;;
42886;SDS011;29032;56.028;92.904;2024-01-07T05:34:57;17.20;;;8.83;;
42886;SDS011;29032;56.028;92.904;2024-01-07T05:40:00;17.13;;;8.63;;
42886;SDS011;29032;56.028;92.904;2024-01-07T05:45:03;26.67;;;11.10;;
42886;SDS011;29032;56.028;92.904;2024-01-07T05:50:06;23.20;;;10.23;;
42886;SDS011;29032;56.028;92.904;2024-01-07T05:55:09;17.47;;;9.10;;
42886;SDS011;29032;56.028;92.904;2024-01-07T06:00:13;21.57;;;9.13;;
42886;SDS011;29032;56.028;92.904;2024-01-07T06:05:16;23.73;;;8.87;;
42886;SDS011;29032;56.028;92.904;2024-01-07T06:10:18;22.10;;;8.60;;
42886;SDS011;29032;56.028;92.904;2024-01-07T06:15:22;26.13;;;12.00;;
42886;SDS011;29032;56.028;92.904;2024-01-07T06:20:24;21.43;;;8.83;;
42886;SDS011;29032;56.028;92.904;2024-01-07T06:25:26;21.50;;;9.83;;
42886;SDS011;29032;56.028;92.904;2024-01-07T06:30:30;24.93;;;11.30;;
42886;SDS011;29032;56.028;92.904;2024-01-07T06:35:32;17.30;;;8.93;;
42886;SDS011;29032;56.028;92.904;2024-01-07T06:40:34;25.83;;;9.50;;
42886;SDS011;29032;56.028;92.904;2024-01-07T06:45:38;22.80;;;10.17;;
42886;SDS011;29032;56.028;92.904;2024-01-07T06:50:40;28.47;;;11.47;;
42886;SDS011;29032;56.028;92.904;2024-01-07T06:55:42;27.27;;;12.87;;
42886;SDS011;29032;56.028;92.904;2024-01-07T07:00:46;19.70;;;10.20;;
42886;SDS011;29032;56.028;92.904;2024-01-07T07:05:48;24.67;;;9.87;;
42886;SDS011;29032;56.028;92.904;2024-01-07T07:10:50;23.83;;;11.73;;
42886;SDS011;29032;56.028;92.904;2024-01-07T07:15:54;35.37;;;15.27;;
42886;SDS011;29032;56.028;92.904;2024-01-07T07:20:56;30.63;;;13.50;;
42886;SDS011;29032;56.028;92.904;2024-01-07T07:25:58;30.03;;;12.80;;
42886;SDS011;29032;56.028;92.904;2024-01-07T07:31:02;26.10;;;11.70;;
42886;SDS011;29032;56.028;92.904;2024-01-07T07:36:04;23.90;;;10.43;;
42886;SDS011;29032;56.028;92.904;2024-01-07T07:41:07;20.03;;;10.60;;
42886;SDS011;29032;56.028;92.904;2024-01-07T07:46:11;20.10;;;9.90;;
42886;SDS011;29032;56.028;92.904;2024-01-07T07:51:13;26.30;;;10.10;;
42886;SDS011;29032;56.028;92.904;2024-01-07T07:56:15;22.00;;;9.43;;
42886;SDS011;29032;56.028;92.904;2024-01-07T08:01:19;17.00;;;8.40;;
42886;SDS011;29032;56.028;92.904;2024-01-07T08:06:21;17.93;;;8.17;;
42886;SDS011;29032;56.028;92.904;2024-01-07T08:11:23;23.33;;;9.00;;
42886;SDS011;29032;56.028;92.904;2024-01-07T08:16:27;22.53;;;9.77;;
42886;SDS011;29032;56.028;92.904;2024-01-07T08:21:29;23.53;;;9.90;;
42886;SDS011;29032;56.028;92.904;2024-01-07T08:26:31;26.73;;;11.33;;
42886;SDS011;29032;56.028;92.904;2024-01-07T08:31:35;31.00;;;13.43;;
42886;SDS011;29032;56.028;92.904;2024-01-07T08:36:37;23.97;;;11.07;;
42886;SDS011;29032;56.028;92.904;2024-01-07T08:41:40;28.43;;;10.80;;
42886;SDS011;29032;56.028;92.904;2024-01-07T08:46:43;28.07;;;12.23;;
42886;SDS011;29032;56.028;92.904;2024-01-07T08:51:45;42.70;;;20.93;;
42886;SDS011;29032;56.028;92.904;2024-01-07T08:56:48;41.10;;;18.43;;
42886;SDS011;29032;56.028;92.904;2024-01-07T09:01:51;35.03;;;16.70;;
42886;SDS011;29032;56.028;92.904;2024-01-07T09:06:54;33.03;;;14.10;;
42886;SDS011;29032;56.028;92.904;2024-01-07T09:11:56;38.23;;;17.37;;
42886;SDS011;29032;56.028;92.904;2024-01-07T09:17:00;25.63;;;11.07;;
42886;SDS011;29032;56.028;92.904;2024-01-07T09:22:02;20.23;;;10.13;;
42886;SDS011;29032;56.028;92.904;2024-01-07T09:27:04;25.27;;;10.67;;
42886;SDS011;29032;56.028;92.904;2024-01-07T09:32:08;22.67;;;10.70;;
42886;SDS011;29032;56.028;92.904;2024-01-07T09:37:10;29.23;;;12.57;;
42886;SDS011;29032;56.028;92.904;2024-01-07T09:42:13;28.43;;;12.17;;
42886;SDS011;29032;56.028;92.904;2024-01-07T09:47:17;25.20;;;11.97;;
42886;SDS011;29032;56.028;92.904;2024-01-07T09:52:19;29.57;;;13.40;;
42886;SDS011;29032;56.028;92.904;2024-01-07T09:57:22;29.27;;;13.00;;
42886;SDS011;29032;56.028;92.904;2024-01-07T10:02:26;25.57;;;11.90;;
42886;SDS011;29032;56.028;92.904;2024-01-07T10:07:28;25.73;;;11.37;;
42886;SDS011;29032;56.028;92.904;2024-01-07T10:12:30;22.63;;;11.03;;
42886;SDS011;29032;56.028;92.904;2024-01-07T10:17:34;23.70;;;10.97;;
42886;SDS011;29032;56.028;92.904;2024-01-07T10:22:36;31.20;;;11.83;;
42886;SDS011;29032;56.028;92.904;2024-01-07T10:27:38;27.87;;;12.33;;
42886;SDS011;29032;56.028;92.904;2024-01-07T10:32:43;29.00;;;13.83;;
42886;SDS011;29032;56.028;92.904;2024-01-07T10:37:45;29.87;;;11.77;;
42886;SDS011;29032;56.028;92.904;2024-01-07T10:42:47;24.40;;;10.97;;
42886;SDS011;29032;56.028;92.904;2024-01-07T10:47:54;33.83;;;13.93;;
42886;SDS011;29032;56.028;92.904;2024-01-07T10:53:03;30.23;;;15.77;;
42886;SDS011;29032;56.028;92.904;2024-01-07T10:58:05;33.80;;;15.77;;
42886;SDS011;29032;56.028;92.904;2024-01-07T11:03:10;35.23;;;16.63;;
42886;SDS011;29032;56.028;92.904;2024-01-07T11:08:19;43.63;;;18.77;;
42886;SDS011;29032;56.028;92.904;2024-01-07T11:13:33;56.10;;;22.43;;
42886;SDS011;29032;56.028;92.904;2024-01-07T11:18:39;41.53;;;18.73;;
42886;SDS011;29032;56.028;92.904;2024-01-07T11:23:46;44.67;;;18.00;;
42886;SDS011;29032;56.028;92.904;2024-01-07T11:28:49;36.07;;;16.10;;
42886;SDS011;29032;56.028;92.904;2024-01-07T11:33:54;39.20;;;17.30;;
42886;SDS011;29032;56.028;92.904;2024-01-07T11:38:56;39.60;;;16.70;;
42886;SDS011;29032;56.028;92.904;2024-01-07T11:43:58;43.37;;;19.43;;
42886;SDS011;29032;56.028;92.904;2024-01-07T11:49:03;45.57;;;17.87;;
42886;SDS011;29032;56.028;92.904;2024-01-07T11:54:05;41.60;;;17.83;;
42886;SDS011;29032;56.028;92.904;2024-01-07T11:59:07;42.20;;;19.00;;
42886;SDS011;29032;56.028;92.904;2024-01-07T12:04:11;44.43;;;19.67;;
42886;SDS011;29032;56.028;92.904;2024-01-07T12:09:13;37.43;;;17.47;;
42886;SDS011;29032;56.028;92.904;2024-01-07T12:14:15;48.57;;;21.97;;
42886;SDS011;29032;56.028;92.904;2024-01-07T12:19:19;61.07;;;25.07;;
42886;SDS011;29032;56.028;92.904;2024-01-07T12:24:24;65.97;;;26.77;;
42886;SDS011;29032;56.028;92.904;2024-01-07T12:29:26;56.73;;;25.20;;
42886;SDS011;29032;56.028;92.904;2024-01-07T12:34:30;55.93;;;22.57;;
42886;SDS011;29032;56.028;92.904;2024-01-07T12:39:32;52.30;;;23.53;;
42886;SDS011;29032;56.028;92.904;2024-01-07T12:44:35;72.00;;;28.23;;
42886;SDS011;29032;56.028;92.904;2024-01-07T12:49:39;60.97;;;28.00;;
42886;SDS011;29032;56.028;92.904;2024-01-07T12:54:41;62.23;;;30.03;;
42886;SDS011;29032;56.028;92.904;2024-01-07T12:59:43;46.80;;;22.93;;
42886;SDS011;29032;56.028;92.904;2024-01-07T13:04:47;38.63;;;19.00;;
42886;SDS011;29032;56.028;92.904;2024-01-07T13:09:49;38.43;;;17.57;;
42886;SDS011;29032;56.028;92.904;2024-01-07T13:14:51;32.43;;;16.80;;
42886;SDS011;29032;56.028;92.904;2024-01-07T13:19:55;35.00;;;15.73;;
42886;SDS011;29032;56.028;92.904;2024-01-07T13:24:58;33.90;;;15.67;;
42886;SDS011;29032;56.028;92.904;2024-01-07T13:30:00;33.03;;;15.07;;
42886;SDS011;29032;56.028;92.904;2024-01-07T13:35:04;39.40;;;18.10;;
42886;SDS011;29032;56.028;92.904;2024-01-07T13:40:07;49.67;;;21.57;;
42886;SDS011;29032;56.028;92.904;2024-01-07T13:45:10;101.13;;;42.70;;
42886;SDS011;29032;56.028;92.904;2024-01-07T13:50:14;111.57;;;46.83;;
42886;SDS011;29032;56.028;92.904;2024-01-07T13:55:16;137.70;;;53.80;;
42886;SDS011;29032;56.028;92.904;2024-01-07T14:00:18;132.03;;;55.60;;
42886;SDS011;29032;56.028;92.904;2024-01-07T14:05:22;138.57;;;57.90;;
42886;SDS011;29032;56.028;92.904;2024-01-07T14:10:24;128.10;;;55.43;;
42886;SDS011;29032;56.028;92.904;2024-01-07T14:15:27;109.87;;;46.57;;
42886;SDS011;29032;56.028;92.904;2024-01-07T14:20:30;117.07;;;47.33;;
42886;SDS011;29032;56.028;92.904;2024-01-07T14:25:32;158.27;;;64.60;;
42886;SDS011;29032;56.028;92.904;2024-01-07T14:30:35;130.67;;;56.83;;
42886;SDS011;29032;56.028;92.904;2024-01-07T14:35:38;272.20;;;113.03;;
42886;SDS011;29032;56.028;92.904;2024-01-07T14:40:41;290.13;;;125.70;;
42886;SDS011;29032;56.028;92.904;2024-01-07T14:45:43;318.60;;;142.93;;
42886;SDS011;29032;56.028;92.904;2024-01-07T14:50:50;342.03;;;143.30;;
42886;SDS011;29032;56.028;92.904;2024-01-07T14:55:52;366.73;;;163.03;;
42886;SDS011;29032;56.028;92.904;2024-01-07T15:00:54;397.33;;;170.40;;
42886;SDS011;29032;56.028;92.904;2024-01-07T15:05:58;207.00;;;93.90;;
42886;SDS011;29032;56.028;92.904;2024-01-07T15:11:01;204.37;;;88.87;;
42886;SDS011;29032;56.028;92.904;2024-01-07T15:16:04;90.33;;;40.60;;
42886;SDS011;29032;56.028;92.904;2024-01-07T15:21:08;74.40;;;33.03;;
42886;SDS011;29032;56.028;92.904;2024-01-07T15:26:10;64.00;;;28.60;;
42886;SDS011;29032;56.028;92.904;2024-01-07T15:31:13;56.40;;;26.10;;
42886;SDS011;29032;56.028;92.904;2024-01-07T15:36:16;54.93;;;24.43;;
42886;SDS011;29032;56.028;92.904;2024-01-07T15:41:19;54.77;;;25.47;;
42886;SDS011;29032;56.028;92.904;2024-01-07T15:46:21;199.03;;;73.43;;
42886;SDS011;29032;56.028;92.904;2024-01-07T15:51:25;281.47;;;114.90;;
42886;SDS011;29032;56.028;92.904;2024-01-07T15:56:27;180.47;;;74.10;;
42886;SDS011;29032;56.028;92.904;2024-01-07T16:01:29;133.73;;;53.50;;
42886;SDS011;29032;56.028;92.904;2024-01-07T16:06:33;194.37;;;79.53;;
42886;SDS011;29032;56.028;92.904;2024-01-07T16:11:35;229.57;;;93.60;;
42886;SDS011;29032;56.028;92.904;2024-01-07T16:16:37;241.63;;;101.10;;
42886;SDS011;29032;56.028;92.904;2024-01-07T16:21:41;220.17;;;91.87;;
42886;SDS011;29032;56.028;92.904;2024-01-07T16:26:43;176.33;;;79.13;;
42886;SDS011;29032;56.028;92.904;2024-01-07T16:31:46;126.03;;;53.37;;
42886;SDS011;29032;56.028;92.904;2024-01-07T16:36:53;115.93;;;45.07;;
42886;SDS011;29032;56.028;92.904;2024-01-07T16:41:59;219.13;;;82.20;;
42886;SDS011;29032;56.028;92.904;2024-01-07T16:47:02;224.23;;;90.88;;
42886;SDS011;29032;56.028;92.904;2024-01-07T16:52:06;231.43;;;90.93;;
42886;SDS011;29032;56.028;92.904;2024-01-07T16:57:08;211.40;;;82.80;;
42886;SDS011;29032;56.028;92.904;2024-01-07T17:02:10;208.43;;;83.27;;
42886;SDS011;29032;56.028;92.904;2024-01-07T17:07:17;241.07;;;89.47;;
42886;SDS011;29032;56.028;92.904;2024-01-07T17:12:23;221.40;;;81.47;;
42886;SDS011;29032;56.028;92.904;2024-01-07T17:17:26;212.17;;;79.77;;
42886;SDS011;29032;56.028;92.904;2024-01-07T17:22:29;198.27;;;73.60;;
42886;SDS011;29032;56.028;92.904;2024-01-07T17:27:32;196.77;;;73.07;;
42886;SDS011;29032;56.028;92.904;2024-01-07T17:32:34;189.77;;;70.67;;
42886;SDS011;29032;56.028;92.904;2024-01-07T17:37:38;182.13;;;69.00;;
42886;SDS011;29032;56.028;92.904;2024-01-07T17:42:42;105.50;;;42.33;;
42886;SDS011;29032;56.028;92.904;2024-01-07T17:47:44;95.10;;;38.47;;
42886;SDS011;29032;56.028;92.904;2024-01-07T17:52:48;98.90;;;40.60;;
42886;SDS011;29032;56.028;92.904;2024-01-07T17:57:51;120.37;;;45.20;;
42886;SDS011;29032;56.028;92.904;2024-01-07T18:02:53;235.80;;;83.63;;
42886;SDS011;29032;56.028;92.904;2024-01-07T18:07:57;180.17;;;68.07;;
42886;SDS011;29032;56.028;92.904;2024-01-07T18:13:02;122.50;;;48.87;;
42886;SDS011;29032;56.028;92.904;2024-01-07T18:18:04;90.80;;;38.07;;
42886;SDS011;29032;56.028;92.904;2024-01-07T18:23:08;87.37;;;31.07;;
42886;SDS011;29032;56.028;92.904;2024-01-07T18:28:10;61.50;;;25.30;;
42886;SDS011;29032;56.028;92.904;2024-01-07T18:33:12;98.13;;;35.03;;
42886;SDS011;29032;56.028;92.904;2024-01-07T18:38:16;67.07;;;29.07;;
42886;SDS011;29032;56.028;92.904;2024-01-07T18:43:18;79.53;;;33.03;;
42886;SDS011;29032;56.028;92.904;2024-01-07T18:48:20;74.80;;;27.97;;
42886;SDS011;29032;56.028;92.904;2024-01-07T18:53:24;72.73;;;28.43;;
42886;SDS011;29032;56.028;92.904;2024-01-07T18:58:26;63.67;;;24.50;;
42886;SDS011;29032;56.028;92.904;2024-01-07T19:03:28;61.13;;;23.50;;
42886;SDS011;29032;56.028;92.904;2024-01-07T19:08:32;55.97;;;23.13;;
42886;SDS011;29032;56.028;92.904;2024-01-07T19:13:34;60.83;;;23.97;;
42886;SDS011;29032;56.028;92.904;2024-01-07T19:18:36;64.00;;;23.73;;
42886;SDS011;29032;56.028;92.904;2024-01-07T19:23:40;53.00;;;21.97;;
42886;SDS011;29032;56.028;92.904;2024-01-07T19:28:42;60.67;;;21.30;;
42886;SDS011;29032;56.028;92.904;2024-01-07T19:33:44;47.70;;;20.37;;
42886;SDS011;29032;56.028;92.904;2024-01-07T19:38:48;51.30;;;20.30;;
42886;SDS011;29032;56.028;92.904;2024-01-07T19:43:50;51.97;;;20.73;;
42886;SDS011;29032;56.028;92.904;2024-01-07T19:48:53;54.37;;;22.03;;
42886;SDS011;29032;56.028;92.904;2024-01-07T19:53:57;55.00;;;21.57;;
42886;SDS011;29032;56.028;92.904;2024-01-07T19:58:59;48.03;;;19.43;;
42886;SDS011;29032;56.028;92.904;2024-01-07T20:04:01;49.17;;;21.20;;
42886;SDS011;29032;56.028;92.904;2024-01-07T20:09:05;57.37;;;24.83;;
42886;SDS011;29032;56.028;92.904;2024-01-07T20:14:07;52.00;;;21.83;;
42886;SDS011;29032;56.028;92.904;2024-01-07T20:19:09;52.33;;;21.73;;
42886;SDS011;29032;56.028;92.904;2024-01-07T20:24:13;48.37;;;19.27;;
42886;SDS011;29032;56.028;92.904;2024-01-07T20:29:15;46.20;;;18.67;;
42886;SDS011;29032;56.028;92.904;2024-01-07T20:34:17;49.27;;;19.80;;
42886;SDS011;29032;56.028;92.904;2024-01-07T20:39:21;54.00;;;22.37;;
42886;SDS011;29032;56.028;92.904;2024-01-07T20:44:23;56.67;;;21.67;;
42886;SDS011;29032;56.028;92.904;2024-01-07T20:49:26;51.03;;;20.67;;
42886;SDS011;29032;56.028;92.904;2024-01-07T20:54:29;52.93;;;20.77;;
42886;SDS011;29032;56.028;92.904;2024-01-07T20:59:31;49.30;;;17.37;;
42886;SDS011;29032;56.028;92.904;2024-01-07T21:04:33;34.80;;;15.37;;
42886;SDS011;29032;56.028;92.904;2024-01-07T21:09:37;36.63;;;16.10;;
42886;SDS011;29032;56.028;92.904;2024-01-07T21:14:39;37.57;;;14.97;;
42886;SDS011;29032;56.028;92.904;2024-01-07T21:19:41;33.13;;;13.73;;
42886;SDS011;29032;56.028;92.904;2024-01-07T21:24:45;41.47;;;16.27;;
42886;SDS011;29032;56.028;92.904;2024-01-07T21:29:47;39.83;;;15.77;;
42886;SDS011;29032;56.028;92.904;2024-01-07T21:34:49;36.57;;;14.80;;
42886;SDS011;29032;56.028;92.904;2024-01-07T21:39:53;32.60;;;15.60;;
42886;SDS011;29032;56.028;92.904;2024-01-07T21:44:56;38.33;;;17.47;;
42886;SDS011;29032;56.028;92.904;2024-01-07T21:49:58;34.13;;;15.77;;
42886;SDS011;29032;56.028;92.904;2024-01-07T21:55:02;34.10;;;14.97;;
42886;SDS011;29032;56.028;92.904;2024-01-07T22:00:04;34.87;;;13.77;;
42886;SDS011;29032;56.028;92.904;2024-01-07T22:05:11;36.57;;;15.23;;
42886;SDS011;29032;56.028;92.904;2024-01-07T22:10:15;40.67;;;17.00;;
42886;SDS011;29032;56.028;92.904;2024-01-07T22:15:17;52.60;;;21.07;;
42886;SDS011;29032;56.028;92.904;2024-01-07T22:20:19;51.30;;;19.73;;
42886;SDS011;29032;56.028;92.904;2024-01-07T22:25:23;34.50;;;14.53;;
42886;SDS011;29032;56.028;92.904;2024-01-07T22:30:25;42.63;;;16.00;;
42886;SDS011;29032;56.028;92.904;2024-01-07T22:35:27;32.30;;;15.27;;
42886;SDS011;29032;56.028;92.904;2024-01-07T22:40:31;40.13;;;15.70;;
42886;SDS011;29032;56.028;92.904;2024-01-07T22:45:33;33.90;;;14.67;;
42886;SDS011;29032;56.028;92.904;2024-01-07T22:50:35;39.63;;;14.90;;
42886;SDS011;29032;56.028;92.904;2024-01-07T22:55:39;31.60;;;14.60;;
42886;SDS011;29032;56.028;92.904;2024-01-07T23:00:41;37.90;;;15.33;;
42886;SDS011;29032;56.028;92.904;2024-01-07T23:05:44;42.97;;;17.83;;
42886;SDS011;29032;56.028;92.904;2024-01-07T23:10:47;41.97;;;18.10;;
42886;SDS011;29032;56.028;92.904;2024-01-07T23:15:50;51.87;;;20.40;;
42886;SDS011;29032;56.028;92.904;2024-01-07T23:20:52;56.73;;;22.20;;
42886;SDS011;29032;56.028;92.904;2024-01-07T23:25:55;68.40;;;22.50;;
42886;SDS011;29032;56.028;92.904;2024-01-07T23:30:57;47.47;;;19.80;;
42886;SDS011;29032;56.028;92.904;2024-01-07T23:36:02;36.93;;;16.83;;
42886;SDS011;29032;56.028;92.904;2024-01-07T23:41:06;33.00;;;14.77;;
42886;SDS011;29032;56.028;92.904;2024-01-07T23:46:09;28.10;;;12.30;;
42886;SDS011;29032;56.028;92.904;2024-01-07T23:51:11;38.80;;;15.53;;
42886;SDS011;29032;56.028;92.904;2024-01-07T23:56:15;34.10;;;14.27;;
